createdAt,value
2023-03-15T00:01:28.603Z,99656.19
2023-03-15T00:04:17.621Z,99658.25
2023-03-15T00:07:06.838Z,99663.19
2023-03-15T00:09:58.144Z,99663.63
2023-03-15T00:12:46.835Z,99662.81
2023-03-15T00:15:37.074Z,99666.53
2023-03-15T00:18:25.797Z,99666.50
2023-03-15T00:21:14.635Z,99671.44
2023-03-15T00:24:03.621Z,99677.78
2023-03-15T00:26:52.196Z,99684.59
2023-03-15T00:29:40.767Z,99692.00
2023-03-15T00:32:31.808Z,99684.59
2023-03-15T00:35:20.546Z,99697.31
2023-03-15T00:38:09.497Z,99699.78
2023-03-15T00:40:58.522Z,99689.97
2023-03-15T00:43:47.237Z,99709.69
2023-03-15T00:46:36.088Z,99703.94
2023-03-15T00:49:26.076Z,99708.22
2023-03-15T00:52:14.888Z,99710.47
2023-03-15T00:55:03.637Z,99712.09
2023-03-15T00:57:53.741Z,99718.91
2023-03-15T01:00:42.615Z,99713.13
2023-03-15T01:03:31.265Z,99720.75
2023-03-15T01:06:23.051Z,99719.50
2023-03-15T01:09:11.885Z,99730.19
2023-03-15T01:12:01.766Z,99726.72
2023-03-15T01:14:50.399Z,99731.84
2023-03-15T01:17:39.186Z,99729.56
2023-03-15T01:20:28.498Z,99733.47
2023-03-15T01:23:18.654Z,99736.38
2023-03-15T01:26:09.870Z,99742.31
2023-03-15T01:28:58.835Z,99754.03
2023-03-15T01:31:47.616Z,99747.88
2023-03-15T01:34:36.652Z,99744.00
2023-03-15T01:37:25.229Z,99742.53
2023-03-15T01:40:16.982Z,99747.03
2023-03-15T01:43:19.272Z,99744.19
2023-03-15T01:46:23.502Z,99749.75
2023-03-15T01:49:13.826Z,99749.94
2023-03-15T01:52:04.844Z,99751.16
2023-03-15T01:54:55.759Z,99751.78
2023-03-15T01:57:48.487Z,99761.41
2023-03-15T02:00:37.180Z,99759.34
2023-03-15T02:03:29.438Z,99766.31
2023-03-15T02:06:19.849Z,99755.66
2023-03-15T02:09:14.168Z,99755.69
2023-03-15T02:12:03.896Z,99760.16
2023-03-15T02:14:55.363Z,99758.09
2023-03-15T02:17:47.439Z,99757.72
2023-03-15T02:20:42.869Z,99750.38
2023-03-15T02:23:32.214Z,99751.56
2023-03-15T02:26:27.129Z,99761.22
2023-03-15T02:29:17.434Z,99764.69
2023-03-15T02:32:06.431Z,99765.50
2023-03-15T02:34:55.448Z,99769.03
2023-03-15T02:37:45.966Z,99769.03
2023-03-15T02:40:34.643Z,99778.69
2023-03-15T02:43:29.751Z,99783.19
2023-03-15T02:46:21.214Z,99780.75
2023-03-15T02:49:10.447Z,99786.47
2023-03-15T02:51:59.044Z,99790.56
2023-03-15T02:54:47.768Z,99793.03
2023-03-15T02:57:37.327Z,99797.56
2023-03-15T03:00:26.324Z,99800.44
2023-03-15T03:03:18.359Z,99795.69
2023-03-15T03:06:08.177Z,99797.53
2023-03-15T03:08:56.766Z,99805.97
2023-03-15T03:11:45.506Z,99808.44
2023-03-15T03:14:36.048Z,99814.56
2023-03-15T03:17:24.880Z,99816.03
2023-03-15T03:20:15.973Z,99819.72
2023-03-15T03:23:06.183Z,99825.47
2023-03-15T03:25:55.016Z,99836.53
2023-03-15T03:28:44.789Z,99830.41
2023-03-15T03:31:34.505Z,99836.16
2023-03-15T03:34:23.522Z,99853.56
2023-03-15T03:37:13.621Z,99846.00
2023-03-15T03:40:02.598Z,99856.25
2023-03-15T03:42:53.284Z,99860.78
2023-03-15T03:45:42.325Z,99862.19
2023-03-15T03:48:31.393Z,99860.78
2023-03-15T03:51:20.417Z,99855.44
2023-03-15T03:54:10.475Z,99873.09
2023-03-15T03:56:59.350Z,99875.75
2023-03-15T03:59:48.028Z,99878.81
2023-03-15T04:02:36.770Z,99880.06
2023-03-15T04:05:26.260Z,99870.41
2023-03-15T04:08:14.966Z,99885.41
2023-03-15T04:11:05.035Z,99889.47
2023-03-15T04:13:53.644Z,99888.47
2023-03-15T04:16:42.791Z,99891.53
2023-03-15T04:19:31.881Z,99892.38
2023-03-15T04:22:20.489Z,99899.34
2023-03-15T04:25:09.800Z,99911.22
2023-03-15T04:27:59.876Z,99922.31
2023-03-15T04:30:50.123Z,99922.31
2023-03-15T04:33:38.778Z,99925.19
2023-03-15T04:36:29.548Z,99928.47
2023-03-15T04:39:18.223Z,99921.09
2023-03-15T04:42:07.106Z,99940.38
2023-03-15T04:44:57.418Z,99942.44
2023-03-15T04:47:46.194Z,99942.81
2023-03-15T04:50:34.926Z,99953.28
2023-03-15T04:53:23.731Z,99958.44
2023-03-15T04:56:12.361Z,99958.81
2023-03-15T04:59:01.072Z,99957.59
2023-03-15T05:01:52.544Z,99964.56
2023-03-15T05:04:42.040Z,99966.44
2023-03-15T05:07:32.520Z,99974.63
2023-03-15T05:10:21.552Z,99981.41
2023-03-15T05:13:10.182Z,99975.22
2023-03-15T05:15:59.244Z,99980.56
2023-03-15T05:18:49.320Z,99988.19
2023-03-15T05:21:37.898Z,99993.09
2023-03-15T05:24:26.743Z,99993.28
2023-03-15T05:27:15.678Z,99995.78
2023-03-15T05:30:05.852Z,99998.63
2023-03-15T05:32:54.852Z,100007.66
2023-03-15T05:35:46.260Z,100012.19
2023-03-15T05:38:35.023Z,100019.38
2023-03-15T05:41:24.012Z,100022.88
2023-03-15T05:44:12.669Z,100031.91
2023-03-15T05:47:01.715Z,100033.94
2023-03-15T05:49:51.576Z,100041.31
2023-03-15T05:52:41.641Z,100041.31
2023-03-15T05:55:30.293Z,100051.63
2023-03-15T05:58:18.818Z,100054.06
2023-03-15T06:01:07.548Z,100070.47
2023-03-15T06:04:02.803Z,100073.34
2023-03-15T06:06:52.282Z,100069.88
2023-03-15T06:09:42.666Z,100067.22
2023-03-15T06:12:31.345Z,100068.00
2023-03-15T06:15:20.570Z,100078.34
2023-03-15T06:18:09.526Z,100082.03
2023-03-15T06:20:58.195Z,100085.31
2023-03-15T06:23:47.144Z,100091.47
2023-03-15T06:26:37.124Z,100089.00
2023-03-15T06:29:28.858Z,100102.56
2023-03-15T06:32:21.501Z,100097.00
2023-03-15T06:35:12.556Z,100104.19
2023-03-15T06:38:01.185Z,100110.72
2023-03-15T06:40:49.988Z,100108.72
2023-03-15T06:43:40.001Z,100101.28
2023-03-15T06:46:28.709Z,100114.63
2023-03-15T06:49:17.384Z,100116.47
2023-03-15T06:52:07.339Z,100122.22
2023-03-15T06:54:56.025Z,100119.31
2023-03-15T06:57:47.102Z,100127.97
2023-03-15T07:00:37.256Z,100122.81
2023-03-15T07:03:55.210Z,100131.22
2023-03-15T07:06:43.920Z,100125.47
2023-03-15T07:09:32.577Z,100140.66
2023-03-15T07:12:21.286Z,100129.19
2023-03-15T07:15:11.853Z,100131.03
2023-03-15T07:18:02.389Z,100128.78
2023-03-15T07:20:57.770Z,100133.69
2023-03-15T07:23:46.487Z,100129.81
2023-03-15T07:26:35.182Z,100133.72
2023-03-15T07:29:24.373Z,100133.31
2023-03-15T07:32:13.087Z,100137.84
2023-03-15T07:35:03.133Z,100133.31
2023-03-15T07:37:51.808Z,100140.75
2023-03-15T07:40:40.756Z,100144.81
2023-03-15T07:43:30.039Z,100137.84
2023-03-15T07:46:18.716Z,100139.47
2023-03-15T07:49:07.430Z,100143.59
2023-03-15T07:51:57.894Z,100145.22
2023-03-15T07:54:47.150Z,100139.13
2023-03-15T07:57:35.784Z,100142.59
2023-03-15T08:00:25.143Z,100139.47
2023-03-15T08:03:13.876Z,100146.88
2023-03-15T08:06:02.603Z,100150.16
2023-03-15T08:08:52.668Z,100156.94
2023-03-15T08:11:42.281Z,100162.28
2023-03-15T08:14:32.553Z,100169.44
2023-03-15T08:17:21.395Z,100163.91
2023-03-15T08:20:14.896Z,100180.75
2023-03-15T08:23:03.932Z,100176.84
2023-03-15T08:25:53.989Z,100182.41
2023-03-15T08:28:42.665Z,100176.63
2023-03-15T08:31:31.455Z,100179.50
2023-03-15T08:34:20.282Z,100189.97
2023-03-15T08:37:09.043Z,100190.38
2023-03-15T08:40:05.303Z,100200.22
2023-03-15T08:42:55.569Z,100217.88
2023-03-15T08:46:00.223Z,100220.34
2023-03-15T08:48:49.432Z,100238.81
2023-03-15T08:51:38.219Z,100242.91
2023-03-15T08:54:27.492Z,100244.56
2023-03-15T08:57:16.697Z,100250.28
2023-03-15T09:00:09.320Z,100243.91
2023-03-15T09:02:58.184Z,100242.25
2023-03-15T09:05:46.873Z,100245.13
2023-03-15T09:08:35.486Z,100256.00
2023-03-15T09:11:24.629Z,100254.31
2023-03-15T09:14:13.216Z,100255.56
2023-03-15T09:17:03.268Z,100255.94
2023-03-15T09:19:52.449Z,100253.03
2023-03-15T09:22:41.141Z,100265.13
2023-03-15T09:25:29.775Z,100262.47
2023-03-15T09:28:18.391Z,100251.41
2023-03-15T09:31:07.649Z,100262.06
2023-03-15T09:33:58.617Z,100262.06
2023-03-15T09:36:52.835Z,100263.31
2023-03-15T09:39:41.564Z,100259.84
2023-03-15T09:42:35.849Z,100259.22
2023-03-15T09:45:29.585Z,100256.53
2023-03-15T09:48:21.369Z,100255.91
2023-03-15T09:51:15.661Z,100256.72
2023-03-15T09:54:07.394Z,100260.03
2023-03-15T09:57:00.742Z,100264.91
2023-03-15T09:59:54.750Z,100264.13
2023-03-15T10:02:47.859Z,100264.13
2023-03-15T10:05:44.042Z,100265.75
2023-03-15T10:08:34.337Z,100258.16
2023-03-15T10:11:27.415Z,100274.38
2023-03-15T10:14:26.451Z,100271.91
2023-03-15T10:17:16.751Z,100275.56
2023-03-15T10:20:09.738Z,100281.53
2023-03-15T10:23:01.233Z,100283.81
2023-03-15T10:25:52.791Z,100286.03
2023-03-15T10:28:41.633Z,100291.19
2023-03-15T10:31:44.200Z,100288.13
2023-03-15T10:34:33.578Z,100291.19
2023-03-15T10:37:23.712Z,100289.94
2023-03-15T10:40:16.413Z,100294.47
2023-03-15T10:43:16.898Z,100295.09
2023-03-15T10:46:07.693Z,100299.81
2023-03-15T10:49:00.027Z,100294.84
2023-03-15T10:51:52.232Z,100289.91
2023-03-15T10:54:46.445Z,100300.19
2023-03-15T10:57:40.249Z,100301.63
2023-03-15T11:00:33.770Z,100295.72
2023-03-15T11:03:23.911Z,100298.56
2023-03-15T11:06:23.764Z,100307.41
2023-03-15T11:09:14.497Z,100298.38
2023-03-15T11:12:05.523Z,100303.09
2023-03-15T11:14:59.406Z,100299.41
2023-03-15T11:17:51.112Z,100300.63
2023-03-15T11:20:42.186Z,100297.53
2023-03-15T11:23:34.570Z,100302.47
2023-03-15T11:26:33.144Z,100300.44
2023-03-15T11:29:24.962Z,100300.44
2023-03-15T11:32:15.439Z,100308.84
2023-03-15T11:35:09.909Z,100313.34
2023-03-15T11:38:13.024Z,100308.84
2023-03-15T11:41:07.385Z,100303.50
2023-03-15T11:44:05.553Z,100312.13
2023-03-15T11:46:57.150Z,100313.38
2023-03-15T11:49:50.886Z,100308.03
2023-03-15T11:52:41.272Z,100303.72
2023-03-15T11:55:30.796Z,100300.84
2023-03-15T11:58:31.117Z,100298.53
2023-03-15T12:01:27.571Z,100293.63
2023-03-15T12:04:52.769Z,100293.47
2023-03-15T12:08:01.070Z,100287.09
2023-03-15T12:10:51.716Z,100294.47
2023-03-15T12:13:40.755Z,100284.44
2023-03-15T12:16:31.511Z,100283.63
2023-03-15T12:19:22.971Z,100298.59
2023-03-15T12:22:17.501Z,100288.75
2023-03-15T12:25:14.237Z,100292.03
2023-03-15T12:28:08.794Z,100292.44
2023-03-15T12:31:01.834Z,100289.75
2023-03-15T12:33:52.771Z,100289.19
2023-03-15T12:36:43.566Z,100297.22
2023-03-15T12:39:45.048Z,100291.47
2023-03-15T12:43:10.523Z,100292.94
2023-03-15T12:46:00.557Z,100290.84
2023-03-15T12:49:07.626Z,100292.91
2023-03-15T12:51:59.790Z,100293.28
2023-03-15T12:54:52.053Z,100298.03
2023-03-15T12:57:41.991Z,100297.22
2023-03-15T13:00:33.333Z,100297.41
2023-03-15T13:03:25.849Z,100294.53
2023-03-15T13:06:21.337Z,100301.97
2023-03-15T13:09:17.755Z,100305.69
2023-03-15T13:12:11.832Z,100302.81
2023-03-15T13:15:04.951Z,100299.50
2023-03-15T13:17:58.897Z,100303.63
2023-03-15T13:20:58.657Z,100302.00
2023-03-15T13:23:53.457Z,100304.88
2023-03-15T13:26:51.061Z,100302.81
2023-03-15T13:29:41.903Z,100301.63
2023-03-15T13:32:30.654Z,100302.06
2023-03-15T13:35:19.421Z,100298.34
2023-03-15T13:38:25.468Z,100293.03
2023-03-15T13:41:20.489Z,100294.25
2023-03-15T13:44:20.234Z,100286.50
2023-03-15T13:47:09.398Z,100295.13
2023-03-15T13:49:58.397Z,100295.56
2023-03-15T13:52:47.847Z,100295.94
2023-03-15T13:55:38.040Z,100302.72
2023-03-15T13:58:30.248Z,100316.06
2023-03-15T14:01:19.487Z,100324.06
2023-03-15T14:04:11.159Z,100325.09
2023-03-15T14:07:15.047Z,100332.09
2023-03-15T14:10:21.237Z,100338.44
2023-03-15T14:13:26.394Z,100330.88
2023-03-15T14:16:17.652Z,100336.88
2023-03-15T14:19:24.668Z,100326.81
2023-03-15T14:22:16.526Z,100334.06
2023-03-15T14:25:07.229Z,100328.91
2023-03-15T14:27:56.061Z,100340.00
2023-03-15T14:30:53.847Z,100332.81
2023-03-15T14:33:43.727Z,100335.91
2023-03-15T14:36:35.444Z,100334.66
2023-03-15T14:39:27.872Z,100339.59
2023-03-15T14:42:16.551Z,100336.78
2023-03-15T14:45:05.845Z,100343.75
2023-03-15T14:47:59.224Z,100332.69
2023-03-15T14:50:49.274Z,100328.59
2023-03-15T14:53:39.047Z,100332.25
2023-03-15T14:56:28.001Z,100335.75
2023-03-15T14:59:16.672Z,100342.56
2023-03-15T15:02:06.532Z,100336.81
2023-03-15T15:04:57.856Z,100337.81
2023-03-15T15:07:46.862Z,100338.22
2023-03-15T15:10:36.913Z,100352.22
2023-03-15T15:13:27.146Z,100345.41
2023-03-15T15:16:16.277Z,100346.63
2023-03-15T15:19:05.219Z,100335.72
2023-03-15T15:21:55.660Z,100339.03
2023-03-15T15:24:45.679Z,100350.72
2023-03-15T15:27:34.645Z,100351.97
2023-03-15T15:30:28.393Z,100355.25
2023-03-15T15:33:17.396Z,100347.09
2023-03-15T15:36:12.399Z,100357.47
2023-03-15T15:39:07.201Z,100355.41
2023-03-15T15:41:56.205Z,100362.81
2023-03-15T15:44:46.556Z,100380.69
2023-03-15T15:47:35.395Z,100377.59
2023-03-15T15:50:24.014Z,100387.84
2023-03-15T15:53:14.547Z,100382.50
2023-03-15T15:56:06.063Z,100387.78
2023-03-15T15:58:55.078Z,100392.34
2023-03-15T16:01:58.833Z,100393.38
2023-03-15T16:04:51.085Z,100401.34
2023-03-15T16:07:40.215Z,100404.41
2023-03-15T16:10:38.212Z,100410.78
2023-03-15T16:13:28.582Z,100415.75
2023-03-15T16:16:18.766Z,100416.94
2023-03-15T16:19:07.379Z,100422.69
2023-03-15T16:21:55.977Z,100419.78
2023-03-15T16:24:46.901Z,100423.50
2023-03-15T16:27:35.505Z,100433.63
2023-03-15T16:30:27.887Z,100437.47
2023-03-15T16:33:18.199Z,100439.91
2023-03-15T16:36:07.595Z,100452.81
2023-03-15T16:38:57.301Z,100446.25
2023-03-15T16:41:46.185Z,100448.06
2023-03-15T16:44:34.812Z,100457.09
2023-03-15T16:47:25.160Z,100460.38
2023-03-15T16:50:14.249Z,100460.75
2023-03-15T16:53:05.233Z,100465.25
2023-03-15T16:55:54.194Z,100474.91
2023-03-15T16:58:42.992Z,100478.84
2023-03-15T17:01:33.964Z,100483.72
2023-03-15T17:04:24.019Z,100485.38
2023-03-15T17:07:14.500Z,100494.81
2023-03-15T17:10:06.553Z,100507.53
2023-03-15T17:12:55.752Z,100503.84
2023-03-15T17:15:44.587Z,100502.81
2023-03-15T17:18:34.339Z,100508.97
2023-03-15T17:21:25.883Z,100515.34
2023-03-15T17:24:15.478Z,100519.06
2023-03-15T17:27:05.275Z,100527.53
2023-03-15T17:29:53.894Z,100529.84
2023-03-15T17:32:42.663Z,100538.69
2023-03-15T17:35:33.950Z,100544.03
2023-03-15T17:38:32.919Z,100550.25
2023-03-15T17:41:23.437Z,100554.91
2023-03-15T17:44:12.702Z,100555.38
2023-03-15T17:47:02.872Z,100563.69
2023-03-15T17:49:52.822Z,100574.38
2023-03-15T17:52:42.198Z,100577.50
2023-03-15T17:55:35.221Z,100577.28
2023-03-15T17:58:26.588Z,100580.97
2023-03-15T18:01:17.083Z,100587.97
2023-03-15T18:04:08.077Z,100588.44
2023-03-15T18:06:57.549Z,100591.94
2023-03-15T18:09:46.153Z,100594.13
2023-03-15T18:12:36.264Z,100602.09
2023-03-15T18:15:25.202Z,100610.34
2023-03-15T18:18:13.917Z,100613.41
2023-03-15T18:21:02.625Z,100618.38
2023-03-15T18:23:51.399Z,100621.03
2023-03-15T18:26:40.072Z,100622.53
2023-03-15T18:29:29.988Z,100618.84
2023-03-15T18:32:18.676Z,100614.91
2023-03-15T18:35:08.881Z,100619.09
2023-03-15T18:37:57.893Z,100626.41
2023-03-15T18:40:47.213Z,100628.25
2023-03-15T18:43:36.788Z,100624.72
2023-03-15T18:46:27.689Z,100632.47
2023-03-15T18:49:19.112Z,100636.56
2023-03-15T18:52:07.821Z,100643.59
2023-03-15T18:54:57.003Z,100647.09
2023-03-15T18:57:46.289Z,100642.00
2023-03-15T19:00:36.195Z,100648.69
2023-03-15T19:03:26.223Z,100643.75
2023-03-15T19:06:19.648Z,100646.91
2023-03-15T19:09:08.559Z,100654.06
2023-03-15T19:11:57.210Z,100654.47
2023-03-15T19:14:45.862Z,100652.72
2023-03-15T19:17:34.440Z,100661.97
2023-03-15T19:20:26.669Z,100663.41
2023-03-15T19:23:15.413Z,100663.47
2023-03-15T19:26:04.094Z,100664.53
2023-03-15T19:28:53.293Z,100668.44
2023-03-15T19:31:41.958Z,100672.16
2023-03-15T19:34:31.804Z,100674.16
2023-03-15T19:37:21.842Z,100678.25
2023-03-15T19:40:12.398Z,100690.97
2023-03-15T19:43:03.936Z,100691.84
2023-03-15T19:45:52.605Z,100689.09
2023-03-15T19:48:41.467Z,100692.69
2023-03-15T19:51:30.334Z,100695.47
2023-03-15T19:54:20.414Z,100699.66
2023-03-15T19:57:09.186Z,100700.69
2023-03-15T19:59:57.901Z,100705.06
2023-03-15T20:02:46.985Z,100700.88
2023-03-15T20:05:37.221Z,100716.91
2023-03-15T20:08:26.485Z,100718.56
2023-03-15T20:11:21.147Z,100729.22
2023-03-15T20:14:09.933Z,100722.28
2023-03-15T20:16:58.613Z,100733.81
2023-03-15T20:19:47.499Z,100730.91
2023-03-15T20:22:36.071Z,100733.59
2023-03-15T20:25:24.795Z,100733.44
2023-03-15T20:28:15.125Z,100735.03
2023-03-15T20:31:08.071Z,100745.97
2023-03-15T20:33:56.796Z,100741.84
2023-03-15T20:36:45.568Z,100758.50
2023-03-15T20:39:34.909Z,100763.59
2023-03-15T20:42:24.574Z,100766.91
2023-03-15T20:45:15.161Z,100766.28
2023-03-15T20:48:03.786Z,100772.13
2023-03-15T20:50:53.070Z,100773.78
2023-03-15T20:53:41.698Z,100776.63
2023-03-15T20:56:30.357Z,100787.78
2023-03-15T20:59:19.010Z,100790.16
2023-03-15T21:02:11.690Z,100793.28
2023-03-15T21:05:00.299Z,100797.16
2023-03-15T21:07:48.977Z,100802.50
2023-03-15T21:10:38.048Z,100792.97
2023-03-15T21:13:26.787Z,100805.44
2023-03-15T21:16:15.821Z,100807.50
2023-03-15T21:19:05.858Z,100806.09
2023-03-15T21:21:56.703Z,100803.81
2023-03-15T21:24:55.275Z,100809.16
2023-03-15T21:27:44.823Z,100805.84
2023-03-15T21:30:33.495Z,100809.53
2023-03-15T21:33:22.546Z,100813.03
2023-03-15T21:36:12.655Z,100818.19
2023-03-15T21:39:01.522Z,100819.84
2023-03-15T21:41:50.733Z,100824.78
2023-03-15T21:44:39.381Z,100826.44
2023-03-15T21:47:28.233Z,100823.88
2023-03-15T21:50:17.609Z,100822.97
2023-03-15T21:53:07.937Z,100819.44
2023-03-15T21:55:57.817Z,100829.75
2023-03-15T21:58:46.609Z,100831.59
2023-03-15T22:01:35.256Z,100831.84
2023-03-15T22:04:24.553Z,100834.53
2023-03-15T22:07:13.686Z,100842.03
2023-03-15T22:10:04.036Z,100840.97
2023-03-15T22:12:54.485Z,100837.41
2023-03-15T22:15:43.518Z,100836.69
2023-03-15T22:18:33.690Z,100836.75
2023-03-15T22:21:22.569Z,100840.44
2023-03-15T22:24:11.553Z,100847.00
2023-03-15T22:27:01.525Z,100846.56
2023-03-15T22:29:52.491Z,100842.88
2023-03-15T22:32:45.294Z,100853.56
2023-03-15T22:35:35.187Z,100855.22
2023-03-15T22:38:27.370Z,100856.34
2023-03-15T22:41:15.993Z,100858.75
2023-03-15T22:44:06.323Z,100855.81
2023-03-15T22:46:55.203Z,100863.34
2023-03-15T22:49:44.002Z,100868.69
2023-03-15T22:52:32.628Z,100863.53
2023-03-15T22:55:21.669Z,100876.44
2023-03-15T22:58:12.296Z,100872.75
2023-03-15T23:01:02.548Z,100874.41
2023-03-15T23:03:51.257Z,100881.78
2023-03-15T23:06:39.881Z,100881.41
2023-03-15T23:09:28.645Z,100876.44
2023-03-15T23:12:35.269Z,100889.16
2023-03-15T23:15:24.372Z,100883.28
2023-03-15T23:18:15.164Z,100882.00
2023-03-15T23:21:08.568Z,100887.72
2023-03-15T23:24:00.147Z,100892.50
2023-03-15T23:26:48.985Z,100884.09
2023-03-15T23:29:52.878Z,100889.53
2023-03-15T23:32:42.507Z,100888.72
2023-03-15T23:35:33.771Z,100889.16
2023-03-15T23:38:22.985Z,100892.41
2023-03-15T23:41:14.808Z,100889.34
2023-03-15T23:44:04.290Z,100899.84
2023-03-15T23:46:54.785Z,100896.16
2023-03-15T23:49:46.137Z,100898.13
2023-03-15T23:52:38.438Z,100901.78
2023-03-15T23:55:28.704Z,100900.97
2023-03-15T23:58:18.485Z,100903.25
